sensor_id;sensor_type;location;lat;lon;timestamp;P1;durP1;ratioP1;P2;durP2;ratioP2
19973;SDS011;10148;47.694;9.442;2023-02-08T00:00:39;17.33;;;7.80;;
19973;SDS011;10148;47.694;9.442;2023-02-08T00:03:04;15.13;;;8.93;;
19973;SDS011;10148;47.694;9.442;2023-02-08T00:05:30;15.00;;;7.03;;
19973;SDS011;10148;47.694;9.442;2023-02-08T00:07:56;14.50;;;7.67;;
19973;SDS011;10148;47.694;9.442;2023-02-08T00:10:21;15.30;;;7.10;;
19973;SDS011;10148;47.694;9.442;2023-02-08T00:12:47;11.17;;;6.53;;
19973;SDS011;10148;47.694;9.442;2023-02-08T00:15:12;13.67;;;7.90;;
19973;SDS011;10148;47.694;9.442;2023-02-08T00:17:38;14.23;;;7.87;;
19973;SDS011;10148;47.694;9.442;2023-02-08T00:20:03;14.13;;;7.60;;
19973;SDS011;10148;47.694;9.442;2023-02-08T00:22:30;14.53;;;8.17;;
19973;SDS011;10148;47.694;9.442;2023-02-08T00:24:56;13.60;;;7.20;;
19973;SDS011;10148;47.694;9.442;2023-02-08T00:27:21;11.80;;;6.60;;
19973;SDS011;10148;47.694;9.442;2023-02-08T00:29:47;13.27;;;7.90;;
19973;SDS011;10148;47.694;9.442;2023-02-08T00:32:12;13.03;;;7.40;;
19973;SDS011;10148;47.694;9.442;2023-02-08T00:34:38;14.70;;;7.17;;
19973;SDS011;10148;47.694;9.442;2023-02-08T00:37:04;13.87;;;6.77;;
19973;SDS011;10148;47.694;9.442;2023-02-08T00:39:30;16.20;;;8.17;;
19973;SDS011;10148;47.694;9.442;2023-02-08T00:41:56;12.90;;;6.40;;
19973;SDS011;10148;47.694;9.442;2023-02-08T00:44:21;14.40;;;7.23;;
19973;SDS011;10148;47.694;9.442;2023-02-08T00:46:47;12.07;;;6.50;;
19973;SDS011;10148;47.694;9.442;2023-02-08T00:49:12;13.03;;;7.63;;
19973;SDS011;10148;47.694;9.442;2023-02-08T00:51:38;12.67;;;6.27;;
19973;SDS011;10148;47.694;9.442;2023-02-08T00:54:03;13.13;;;6.87;;
19973;SDS011;10148;47.694;9.442;2023-02-08T00:56:29;11.87;;;6.67;;
19973;SDS011;10148;47.694;9.442;2023-02-08T00:58:55;12.20;;;7.10;;
19973;SDS011;10148;47.694;9.442;2023-02-08T01:01:20;15.37;;;6.60;;
19973;SDS011;10148;47.694;9.442;2023-02-08T01:03:46;13.30;;;6.90;;
19973;SDS011;10148;47.694;9.442;2023-02-08T01:06:14;13.17;;;6.63;;
19973;SDS011;10148;47.694;9.442;2023-02-08T01:08:41;16.07;;;7.57;;
19973;SDS011;10148;47.694;9.442;2023-02-08T01:11:08;11.57;;;6.10;;
19973;SDS011;10148;47.694;9.442;2023-02-08T01:13:37;12.63;;;7.30;;
19973;SDS011;10148;47.694;9.442;2023-02-08T01:16:07;11.83;;;7.40;;
19973;SDS011;10148;47.694;9.442;2023-02-08T01:18:45;11.70;;;7.07;;
19973;SDS011;10148;47.694;9.442;2023-02-08T01:21:13;10.10;;;6.47;;
19973;SDS011;10148;47.694;9.442;2023-02-08T01:23:40;10.20;;;6.30;;
19973;SDS011;10148;47.694;9.442;2023-02-08T01:26:07;12.97;;;6.33;;
19973;SDS011;10148;47.694;9.442;2023-02-08T01:28:34;12.33;;;6.20;;
19973;SDS011;10148;47.694;9.442;2023-02-08T01:31:03;19.67;;;7.10;;
19973;SDS011;10148;47.694;9.442;2023-02-08T01:33:33;14.47;;;7.13;;
19973;SDS011;10148;47.694;9.442;2023-02-08T01:35:59;12.77;;;6.27;;
19973;SDS011;10148;47.694;9.442;2023-02-08T01:38:25;11.50;;;7.23;;
19973;SDS011;10148;47.694;9.442;2023-02-08T01:40:50;13.30;;;6.77;;
19973;SDS011;10148;47.694;9.442;2023-02-08T01:43:26;14.03;;;6.27;;
19973;SDS011;10148;47.694;9.442;2023-02-08T01:45:56;11.80;;;6.37;;
19973;SDS011;10148;47.694;9.442;2023-02-08T01:48:23;13.43;;;7.27;;
19973;SDS011;10148;47.694;9.442;2023-02-08T01:53:17;12.47;;;7.00;;
19973;SDS011;10148;47.694;9.442;2023-02-08T01:55:45;10.93;;;6.00;;
19973;SDS011;10148;47.694;9.442;2023-02-08T01:58:13;11.20;;;6.47;;
19973;SDS011;10148;47.694;9.442;2023-02-08T02:00:39;10.40;;;5.90;;
19973;SDS011;10148;47.694;9.442;2023-02-08T02:03:05;13.20;;;5.93;;
19973;SDS011;10148;47.694;9.442;2023-02-08T02:05:37;14.50;;;6.27;;
19973;SDS011;10148;47.694;9.442;2023-02-08T02:08:05;10.13;;;6.10;;
19973;SDS011;10148;47.694;9.442;2023-02-08T02:10:31;13.27;;;6.27;;
19973;SDS011;10148;47.694;9.442;2023-02-08T02:13:03;8.83;;;5.47;;
19973;SDS011;10148;47.694;9.442;2023-02-08T02:15:32;11.93;;;6.53;;
19973;SDS011;10148;47.694;9.442;2023-02-08T02:17:58;12.93;;;6.17;;
19973;SDS011;10148;47.694;9.442;2023-02-08T02:34:03;12.37;;;5.37;;
19973;SDS011;10148;47.694;9.442;2023-02-08T02:39:36;10.80;;;6.27;;
19973;SDS011;10148;47.694;9.442;2023-02-08T02:42:18;12.30;;;6.27;;
19973;SDS011;10148;47.694;9.442;2023-02-08T02:45:32;9.07;;;5.90;;
19973;SDS011;10148;47.694;9.442;2023-02-08T02:48:05;13.17;;;6.83;;
19973;SDS011;10148;47.694;9.442;2023-02-08T02:50:44;12.47;;;6.07;;
19973;SDS011;10148;47.694;9.442;2023-02-08T02:53:17;16.53;;;7.63;;
19973;SDS011;10148;47.694;9.442;2023-02-08T02:56:08;12.80;;;6.23;;
19973;SDS011;10148;47.694;9.442;2023-02-08T02:58:38;14.57;;;6.93;;
19973;SDS011;10148;47.694;9.442;2023-02-08T03:01:04;12.07;;;7.17;;
19973;SDS011;10148;47.694;9.442;2023-02-08T03:03:31;15.80;;;6.10;;
19973;SDS011;10148;47.694;9.442;2023-02-08T03:06:21;11.33;;;5.27;;
19973;SDS011;10148;47.694;9.442;2023-02-08T03:12:23;11.23;;;6.30;;
19973;SDS011;10148;47.694;9.442;2023-02-08T03:20:13;10.53;;;6.33;;
19973;SDS011;10148;47.694;9.442;2023-02-08T03:28:17;13.53;;;6.10;;
19973;SDS011;10148;47.694;9.442;2023-02-08T03:30:59;11.73;;;5.93;;
19973;SDS011;10148;47.694;9.442;2023-02-08T03:33:30;14.13;;;6.70;;
19973;SDS011;10148;47.694;9.442;2023-02-08T03:36:05;10.73;;;6.43;;
19973;SDS011;10148;47.694;9.442;2023-02-08T03:38:38;11.20;;;5.97;;
19973;SDS011;10148;47.694;9.442;2023-02-08T03:41:08;12.17;;;5.83;;
19973;SDS011;10148;47.694;9.442;2023-02-08T03:43:37;14.23;;;6.40;;
19973;SDS011;10148;47.694;9.442;2023-02-08T03:46:10;11.23;;;5.90;;
19973;SDS011;10148;47.694;9.442;2023-02-08T03:48:48;11.00;;;6.30;;
19973;SDS011;10148;47.694;9.442;2023-02-08T03:51:23;14.67;;;6.60;;
19973;SDS011;10148;47.694;9.442;2023-02-08T03:53:51;10.17;;;6.13;;
19973;SDS011;10148;47.694;9.442;2023-02-08T03:56:20;12.03;;;6.13;;
19973;SDS011;10148;47.694;9.442;2023-02-08T03:58:57;10.50;;;5.87;;
19973;SDS011;10148;47.694;9.442;2023-02-08T04:01:28;9.90;;;5.17;;
19973;SDS011;10148;47.694;9.442;2023-02-08T04:03:57;10.77;;;5.60;;
19973;SDS011;10148;47.694;9.442;2023-02-08T04:06:24;12.50;;;6.30;;
19973;SDS011;10148;47.694;9.442;2023-02-08T04:08:50;10.20;;;5.43;;
19973;SDS011;10148;47.694;9.442;2023-02-08T04:11:15;14.43;;;7.30;;
19973;SDS011;10148;47.694;9.442;2023-02-08T04:13:41;11.73;;;6.77;;
19973;SDS011;10148;47.694;9.442;2023-02-08T04:16:08;10.87;;;5.80;;
19973;SDS011;10148;47.694;9.442;2023-02-08T04:18:36;11.93;;;6.60;;
19973;SDS011;10148;47.694;9.442;2023-02-08T04:21:01;11.27;;;5.10;;
19973;SDS011;10148;47.694;9.442;2023-02-08T04:23:27;13.67;;;5.97;;
19973;SDS011;10148;47.694;9.442;2023-02-08T04:25:52;14.07;;;6.03;;
19973;SDS011;10148;47.694;9.442;2023-02-08T04:28:18;10.93;;;6.37;;
19973;SDS011;10148;47.694;9.442;2023-02-08T04:30:43;10.07;;;5.50;;
19973;SDS011;10148;47.694;9.442;2023-02-08T04:33:09;11.27;;;5.73;;
19973;SDS011;10148;47.694;9.442;2023-02-08T04:35:37;10.70;;;6.70;;
19973;SDS011;10148;47.694;9.442;2023-02-08T04:38:02;12.73;;;4.83;;
19973;SDS011;10148;47.694;9.442;2023-02-08T04:40:28;8.87;;;5.37;;
19973;SDS011;10148;47.694;9.442;2023-02-08T04:42:55;8.50;;;5.63;;
19973;SDS011;10148;47.694;9.442;2023-02-08T04:45:20;10.93;;;6.10;;
19973;SDS011;10148;47.694;9.442;2023-02-08T04:47:46;10.83;;;5.30;;
19973;SDS011;10148;47.694;9.442;2023-02-08T04:50:11;11.13;;;5.27;;
19973;SDS011;10148;47.694;9.442;2023-02-08T04:52:37;8.53;;;4.50;;
19973;SDS011;10148;47.694;9.442;2023-02-08T04:55:02;12.50;;;5.83;;
19973;SDS011;10148;47.694;9.442;2023-02-08T04:57:28;7.30;;;4.87;;
19973;SDS011;10148;47.694;9.442;2023-02-08T04:59:54;9.20;;;5.20;;
19973;SDS011;10148;47.694;9.442;2023-02-08T05:02:19;10.23;;;5.47;;
19973;SDS011;10148;47.694;9.442;2023-02-08T05:04:45;11.23;;;4.97;;
19973;SDS011;10148;47.694;9.442;2023-02-08T05:07:10;11.20;;;6.00;;
19973;SDS011;10148;47.694;9.442;2023-02-08T05:09:36;9.93;;;5.17;;
19973;SDS011;10148;47.694;9.442;2023-02-08T05:12:01;11.43;;;5.43;;
19973;SDS011;10148;47.694;9.442;2023-02-08T05:14:27;11.87;;;5.57;;
19973;SDS011;10148;47.694;9.442;2023-02-08T05:16:52;10.17;;;5.93;;
19973;SDS011;10148;47.694;9.442;2023-02-08T05:19:18;10.33;;;5.53;;
19973;SDS011;10148;47.694;9.442;2023-02-08T05:21:43;11.03;;;5.07;;
19973;SDS011;10148;47.694;9.442;2023-02-08T05:24:09;7.40;;;4.60;;
19973;SDS011;10148;47.694;9.442;2023-02-08T05:26:36;8.70;;;5.27;;
19973;SDS011;10148;47.694;9.442;2023-02-08T05:29:02;9.83;;;4.80;;
19973;SDS011;10148;47.694;9.442;2023-02-08T05:31:28;10.97;;;5.63;;
19973;SDS011;10148;47.694;9.442;2023-02-08T05:33:53;10.70;;;4.90;;
19973;SDS011;10148;47.694;9.442;2023-02-08T05:36:19;7.67;;;4.13;;
19973;SDS011;10148;47.694;9.442;2023-02-08T05:38:45;11.57;;;5.53;;
19973;SDS011;10148;47.694;9.442;2023-02-08T05:41:10;6.53;;;4.37;;
19973;SDS011;10148;47.694;9.442;2023-02-08T05:43:36;8.90;;;5.27;;
19973;SDS011;10148;47.694;9.442;2023-02-08T05:46:02;9.10;;;4.87;;
19973;SDS011;10148;47.694;9.442;2023-02-08T05:48:28;8.97;;;4.73;;
19973;SDS011;10148;47.694;9.442;2023-02-08T05:50:55;10.20;;;5.80;;
19973;SDS011;10148;47.694;9.442;2023-02-08T05:53:21;7.73;;;5.10;;
19973;SDS011;10148;47.694;9.442;2023-02-08T05:55:46;7.93;;;4.97;;
19973;SDS011;10148;47.694;9.442;2023-02-08T05:58:15;7.53;;;5.30;;
19973;SDS011;10148;47.694;9.442;2023-02-08T06:00:41;11.93;;;5.60;;
19973;SDS011;10148;47.694;9.442;2023-02-08T06:03:07;9.07;;;4.97;;
19973;SDS011;10148;47.694;9.442;2023-02-08T06:05:33;9.53;;;5.17;;
19973;SDS011;10148;47.694;9.442;2023-02-08T06:08:01;10.77;;;4.77;;
19973;SDS011;10148;47.694;9.442;2023-02-08T06:10:26;8.97;;;4.77;;
19973;SDS011;10148;47.694;9.442;2023-02-08T06:12:52;10.30;;;4.50;;
19973;SDS011;10148;47.694;9.442;2023-02-08T06:15:17;8.13;;;4.90;;
19973;SDS011;10148;47.694;9.442;2023-02-08T06:17:43;9.77;;;5.17;;
19973;SDS011;10148;47.694;9.442;2023-02-08T06:20:08;11.47;;;5.73;;
19973;SDS011;10148;47.694;9.442;2023-02-08T06:22:35;10.83;;;4.97;;
19973;SDS011;10148;47.694;9.442;2023-02-08T06:25:00;12.80;;;6.93;;
19973;SDS011;10148;47.694;9.442;2023-02-08T06:27:26;9.00;;;5.27;;
19973;SDS011;10148;47.694;9.442;2023-02-08T06:29:51;10.50;;;5.93;;
19973;SDS011;10148;47.694;9.442;2023-02-08T06:32:17;8.77;;;4.80;;
19973;SDS011;10148;47.694;9.442;2023-02-08T06:34:43;8.97;;;4.47;;
19973;SDS011;10148;47.694;9.442;2023-02-08T06:37:08;9.33;;;5.00;;
19973;SDS011;10148;47.694;9.442;2023-02-08T06:39:34;12.60;;;5.47;;
19973;SDS011;10148;47.694;9.442;2023-02-08T06:41:59;7.50;;;4.27;;
19973;SDS011;10148;47.694;9.442;2023-02-08T06:44:25;8.47;;;4.50;;
19973;SDS011;10148;47.694;9.442;2023-02-08T06:46:51;11.93;;;4.93;;
19973;SDS011;10148;47.694;9.442;2023-02-08T06:49:16;10.07;;;4.90;;
19973;SDS011;10148;47.694;9.442;2023-02-08T06:51:42;5.90;;;2.93;;
19973;SDS011;10148;47.694;9.442;2023-02-08T06:54:08;10.83;;;6.13;;
19973;SDS011;10148;47.694;9.442;2023-02-08T06:56:34;12.47;;;6.13;;
19973;SDS011;10148;47.694;9.442;2023-02-08T06:59:00;8.13;;;5.17;;
19973;SDS011;10148;47.694;9.442;2023-02-08T07:01:25;10.17;;;5.20;;
19973;SDS011;10148;47.694;9.442;2023-02-08T07:03:51;10.97;;;5.10;;
19973;SDS011;10148;47.694;9.442;2023-02-08T07:06:17;10.63;;;5.40;;
19973;SDS011;10148;47.694;9.442;2023-02-08T07:08:44;10.27;;;6.00;;
19973;SDS011;10148;47.694;9.442;2023-02-08T07:11:12;14.40;;;6.43;;
19973;SDS011;10148;47.694;9.442;2023-02-08T07:13:39;12.93;;;6.63;;
19973;SDS011;10148;47.694;9.442;2023-02-08T07:16:05;8.47;;;4.83;;
19973;SDS011;10148;47.694;9.442;2023-02-08T07:18:32;12.30;;;5.60;;
19973;SDS011;10148;47.694;9.442;2023-02-08T07:20:58;11.53;;;5.03;;
19973;SDS011;10148;47.694;9.442;2023-02-08T07:23:24;10.63;;;5.83;;
19973;SDS011;10148;47.694;9.442;2023-02-08T07:25:56;17.47;;;6.37;;
19973;SDS011;10148;47.694;9.442;2023-02-08T07:28:22;13.40;;;6.40;;
19973;SDS011;10148;47.694;9.442;2023-02-08T07:30:48;11.17;;;5.70;;
19973;SDS011;10148;47.694;9.442;2023-02-08T07:33:13;8.93;;;5.37;;
19973;SDS011;10148;47.694;9.442;2023-02-08T07:35:39;9.47;;;4.60;;
19973;SDS011;10148;47.694;9.442;2023-02-08T07:38:04;13.07;;;6.57;;
19973;SDS011;10148;47.694;9.442;2023-02-08T07:40:30;11.10;;;6.50;;
19973;SDS011;10148;47.694;9.442;2023-02-08T07:42:56;13.33;;;6.80;;
19973;SDS011;10148;47.694;9.442;2023-02-08T07:45:21;8.23;;;4.70;;
19973;SDS011;10148;47.694;9.442;2023-02-08T07:47:47;9.83;;;6.10;;
19973;SDS011;10148;47.694;9.442;2023-02-08T07:50:13;13.43;;;6.47;;
19973;SDS011;10148;47.694;9.442;2023-02-08T07:52:40;11.53;;;5.77;;
19973;SDS011;10148;47.694;9.442;2023-02-08T07:55:07;11.87;;;5.93;;
19973;SDS011;10148;47.694;9.442;2023-02-08T07:57:34;14.20;;;6.73;;
19973;SDS011;10148;47.694;9.442;2023-02-08T07:59:59;12.00;;;6.63;;
19973;SDS011;10148;47.694;9.442;2023-02-08T08:02:25;12.03;;;6.80;;
19973;SDS011;10148;47.694;9.442;2023-02-08T08:04:50;16.07;;;8.77;;
19973;SDS011;10148;47.694;9.442;2023-02-08T08:07:18;13.10;;;7.03;;
19973;SDS011;10148;47.694;9.442;2023-02-08T08:09:43;12.73;;;7.27;;
19973;SDS011;10148;47.694;9.442;2023-02-08T08:12:09;13.70;;;7.83;;
19973;SDS011;10148;47.694;9.442;2023-02-08T08:14:34;17.00;;;7.70;;
19973;SDS011;10148;47.694;9.442;2023-02-08T08:17:00;15.23;;;8.37;;
19973;SDS011;10148;47.694;9.442;2023-02-08T08:19:25;18.30;;;7.83;;
19973;SDS011;10148;47.694;9.442;2023-02-08T08:21:52;11.77;;;7.00;;
19973;SDS011;10148;47.694;9.442;2023-02-08T08:24:17;17.00;;;8.87;;
19973;SDS011;10148;47.694;9.442;2023-02-08T08:26:43;15.87;;;8.43;;
19973;SDS011;10148;47.694;9.442;2023-02-08T08:29:08;20.47;;;8.83;;
19973;SDS011;10148;47.694;9.442;2023-02-08T08:31:34;15.63;;;9.17;;
19973;SDS011;10148;47.694;9.442;2023-02-08T08:34:00;16.50;;;8.77;;
19973;SDS011;10148;47.694;9.442;2023-02-08T08:36:26;8.67;;;6.63;;
19973;SDS011;10148;47.694;9.442;2023-02-08T08:38:51;13.37;;;7.73;;
19973;SDS011;10148;47.694;9.442;2023-02-08T08:41:17;12.80;;;7.20;;
19973;SDS011;10148;47.694;9.442;2023-02-08T08:43:43;16.10;;;8.53;;
19973;SDS011;10148;47.694;9.442;2023-02-08T08:46:09;12.77;;;7.10;;
19973;SDS011;10148;47.694;9.442;2023-02-08T08:48:35;13.93;;;7.07;;
19973;SDS011;10148;47.694;9.442;2023-02-08T08:51:02;12.93;;;7.30;;
19973;SDS011;10148;47.694;9.442;2023-02-08T08:53:27;16.27;;;8.60;;
19973;SDS011;10148;47.694;9.442;2023-02-08T08:55:53;14.13;;;8.40;;
19973;SDS011;10148;47.694;9.442;2023-02-08T08:58:19;14.77;;;7.67;;
19973;SDS011;10148;47.694;9.442;2023-02-08T09:00:44;13.30;;;7.47;;
19973;SDS011;10148;47.694;9.442;2023-02-08T09:03:10;13.67;;;7.63;;
19973;SDS011;10148;47.694;9.442;2023-02-08T09:05:36;14.80;;;8.80;;
19973;SDS011;10148;47.694;9.442;2023-02-08T09:08:01;13.93;;;7.60;;
19973;SDS011;10148;47.694;9.442;2023-02-08T09:10:27;15.53;;;9.17;;
19973;SDS011;10148;47.694;9.442;2023-02-08T09:12:54;15.57;;;8.30;;
19973;SDS011;10148;47.694;9.442;2023-02-08T09:15:19;14.17;;;7.17;;
19973;SDS011;10148;47.694;9.442;2023-02-08T09:17:45;13.17;;;7.47;;
19973;SDS011;10148;47.694;9.442;2023-02-08T09:20:10;12.93;;;6.67;;
19973;SDS011;10148;47.694;9.442;2023-02-08T09:22:36;15.97;;;7.43;;
19973;SDS011;10148;47.694;9.442;2023-02-08T09:25:02;11.97;;;6.60;;
19973;SDS011;10148;47.694;9.442;2023-02-08T09:27:28;12.50;;;7.27;;
19973;SDS011;10148;47.694;9.442;2023-02-08T09:29:54;16.70;;;8.37;;
19973;SDS011;10148;47.694;9.442;2023-02-08T09:32:19;16.77;;;8.73;;
19973;SDS011;10148;47.694;9.442;2023-02-08T09:34:46;14.53;;;7.67;;
19973;SDS011;10148;47.694;9.442;2023-02-08T09:37:12;14.20;;;7.47;;
19973;SDS011;10148;47.694;9.442;2023-02-08T09:39:39;15.43;;;8.20;;
19973;SDS011;10148;47.694;9.442;2023-02-08T09:44:54;12.97;;;7.03;;
19973;SDS011;10148;47.694;9.442;2023-02-08T09:47:32;12.90;;;7.53;;
19973;SDS011;10148;47.694;9.442;2023-02-08T09:52:36;16.50;;;7.73;;
19973;SDS011;10148;47.694;9.442;2023-02-08T09:57:53;12.00;;;7.63;;
19973;SDS011;10148;47.694;9.442;2023-02-08T10:00:25;13.73;;;7.47;;
19973;SDS011;10148;47.694;9.442;2023-02-08T10:03:02;15.83;;;8.53;;
19973;SDS011;10148;47.694;9.442;2023-02-08T10:05:30;17.10;;;8.53;;
19973;SDS011;10148;47.694;9.442;2023-02-08T10:07:55;16.13;;;7.90;;
19973;SDS011;10148;47.694;9.442;2023-02-08T10:15:57;14.63;;;7.60;;
19973;SDS011;10148;47.694;9.442;2023-02-08T10:18:35;14.17;;;7.67;;
19973;SDS011;10148;47.694;9.442;2023-02-08T10:26:47;16.97;;;8.37;;
19973;SDS011;10148;47.694;9.442;2023-02-08T10:35:01;16.13;;;7.00;;
19973;SDS011;10148;47.694;9.442;2023-02-08T10:37:30;15.10;;;8.90;;
19973;SDS011;10148;47.694;9.442;2023-02-08T10:39:59;19.57;;;6.87;;
19973;SDS011;10148;47.694;9.442;2023-02-08T10:45:49;18.07;;;7.83;;
19973;SDS011;10148;47.694;9.442;2023-02-08T10:48:25;17.47;;;8.93;;
19973;SDS011;10148;47.694;9.442;2023-02-08T10:51:11;14.50;;;7.93;;
19973;SDS011;10148;47.694;9.442;2023-02-08T10:53:39;15.40;;;8.13;;
19973;SDS011;10148;47.694;9.442;2023-02-08T10:56:05;13.53;;;7.70;;
19973;SDS011;10148;47.694;9.442;2023-02-08T10:58:31;14.83;;;8.20;;
19973;SDS011;10148;47.694;9.442;2023-02-08T11:00:57;15.10;;;7.97;;
19973;SDS011;10148;47.694;9.442;2023-02-08T11:03:24;15.77;;;7.80;;
19973;SDS011;10148;47.694;9.442;2023-02-08T11:05:52;16.27;;;8.43;;
19973;SDS011;10148;47.694;9.442;2023-02-08T11:08:19;14.90;;;7.60;;
19973;SDS011;10148;47.694;9.442;2023-02-08T11:10:59;13.60;;;6.97;;
19973;SDS011;10148;47.694;9.442;2023-02-08T11:16:00;10.27;;;6.53;;
19973;SDS011;10148;47.694;9.442;2023-02-08T11:18:30;12.77;;;6.77;;
19973;SDS011;10148;47.694;9.442;2023-02-08T11:21:03;13.27;;;7.57;;
19973;SDS011;10148;47.694;9.442;2023-02-08T11:23:32;17.90;;;6.87;;
19973;SDS011;10148;47.694;9.442;2023-02-08T11:26:21;10.63;;;6.00;;
19973;SDS011;10148;47.694;9.442;2023-02-08T11:31:27;10.73;;;6.33;;
19973;SDS011;10148;47.694;9.442;2023-02-08T11:33:58;13.43;;;7.53;;
19973;SDS011;10148;47.694;9.442;2023-02-08T11:36:25;13.53;;;7.80;;
19973;SDS011;10148;47.694;9.442;2023-02-08T11:38:52;14.40;;;8.13;;
19973;SDS011;10148;47.694;9.442;2023-02-08T11:41:18;11.73;;;7.33;;
19973;SDS011;10148;47.694;9.442;2023-02-08T11:46:22;14.23;;;6.73;;
19973;SDS011;10148;47.694;9.442;2023-02-08T11:48:50;12.33;;;7.70;;
19973;SDS011;10148;47.694;9.442;2023-02-08T11:51:35;11.83;;;6.97;;
19973;SDS011;10148;47.694;9.442;2023-02-08T11:54:03;13.00;;;7.10;;
19973;SDS011;10148;47.694;9.442;2023-02-08T11:56:31;11.90;;;6.53;;
19973;SDS011;10148;47.694;9.442;2023-02-08T11:58:59;10.40;;;5.33;;
19973;SDS011;10148;47.694;9.442;2023-02-08T12:01:40;9.87;;;6.27;;
19973;SDS011;10148;47.694;9.442;2023-02-08T12:04:07;11.60;;;5.77;;
19973;SDS011;10148;47.694;9.442;2023-02-08T12:06:54;12.30;;;6.27;;
19973;SDS011;10148;47.694;9.442;2023-02-08T12:17:45;9.07;;;5.00;;
19973;SDS011;10148;47.694;9.442;2023-02-08T12:26:12;8.67;;;5.07;;
19973;SDS011;10148;47.694;9.442;2023-02-08T12:28:59;9.07;;;5.47;;
19973;SDS011;10148;47.694;9.442;2023-02-08T12:37:06;8.90;;;5.27;;
19973;SDS011;10148;47.694;9.442;2023-02-08T12:48:45;9.10;;;5.33;;
19973;SDS011;10148;47.694;9.442;2023-02-08T12:56:45;9.30;;;5.33;;
19973;SDS011;10148;47.694;9.442;2023-02-08T12:59:20;8.07;;;5.27;;
19973;SDS011;10148;47.694;9.442;2023-02-08T13:02:01;6.73;;;4.47;;
19973;SDS011;10148;47.694;9.442;2023-02-08T13:04:52;8.90;;;5.27;;
19973;SDS011;10148;47.694;9.442;2023-02-08T13:07:25;10.27;;;6.50;;
19973;SDS011;10148;47.694;9.442;2023-02-08T13:12:50;9.40;;;5.63;;
19973;SDS011;10148;47.694;9.442;2023-02-08T13:15:21;9.07;;;5.73;;
19973;SDS011;10148;47.694;9.442;2023-02-08T13:17:58;9.57;;;4.87;;
19973;SDS011;10148;47.694;9.442;2023-02-08T13:20:39;8.83;;;4.90;;
19973;SDS011;10148;47.694;9.442;2023-02-08T13:23:14;8.67;;;5.20;;
19973;SDS011;10148;47.694;9.442;2023-02-08T13:26:03;9.10;;;4.80;;
19973;SDS011;10148;47.694;9.442;2023-02-08T13:28:32;7.27;;;4.33;;
19973;SDS011;10148;47.694;9.442;2023-02-08T13:31:00;12.90;;;5.60;;
19973;SDS011;10148;47.694;9.442;2023-02-08T13:33:46;12.40;;;5.30;;
19973;SDS011;10148;47.694;9.442;2023-02-08T13:36:36;9.63;;;4.93;;
19973;SDS011;10148;47.694;9.442;2023-02-08T13:39:06;8.47;;;4.90;;
19973;SDS011;10148;47.694;9.442;2023-02-08T13:41:50;7.93;;;5.00;;
19973;SDS011;10148;47.694;9.442;2023-02-08T13:44:18;8.97;;;5.20;;
19973;SDS011;10148;47.694;9.442;2023-02-08T13:46:54;6.85;;;4.88;;
19973;SDS011;10148;47.694;9.442;2023-02-08T13:49:39;9.20;;;4.63;;
19973;SDS011;10148;47.694;9.442;2023-02-08T13:52:06;7.70;;;5.03;;
19973;SDS011;10148;47.694;9.442;2023-02-08T13:54:32;7.97;;;5.37;;
19973;SDS011;10148;47.694;9.442;2023-02-08T13:56:58;10.87;;;5.13;;
19973;SDS011;10148;47.694;9.442;2023-02-08T14:02:12;8.33;;;4.73;;
19973;SDS011;10148;47.694;9.442;2023-02-08T14:04:46;8.30;;;4.87;;
19973;SDS011;10148;47.694;9.442;2023-02-08T14:09:52;8.13;;;4.67;;
19973;SDS011;10148;47.694;9.442;2023-02-08T14:12:24;7.37;;;4.40;;
19973;SDS011;10148;47.694;9.442;2023-02-08T14:15:04;8.70;;;4.77;;
19973;SDS011;10148;47.694;9.442;2023-02-08T14:17:40;8.03;;;4.77;;
19973;SDS011;10148;47.694;9.442;2023-02-08T14:20:18;7.87;;;4.30;;
19973;SDS011;10148;47.694;9.442;2023-02-08T14:22:57;7.50;;;4.03;;
19973;SDS011;10148;47.694;9.442;2023-02-08T14:25:47;7.43;;;4.80;;
19973;SDS011;10148;47.694;9.442;2023-02-08T14:28:23;7.38;;;4.75;;
19973;SDS011;10148;47.694;9.442;2023-02-08T14:30:56;8.80;;;4.90;;
19973;SDS011;10148;47.694;9.442;2023-02-08T14:33:25;8.20;;;4.90;;
19973;SDS011;10148;47.694;9.442;2023-02-08T14:36:03;7.10;;;4.10;;
19973;SDS011;10148;47.694;9.442;2023-02-08T14:41:15;7.33;;;4.63;;
19973;SDS011;10148;47.694;9.442;2023-02-08T14:47:11;6.93;;;4.40;;
19973;SDS011;10148;47.694;9.442;2023-02-08T14:49:51;7.67;;;4.63;;
19973;SDS011;10148;47.694;9.442;2023-02-08T14:52:28;7.87;;;4.80;;
19973;SDS011;10148;47.694;9.442;2023-02-08T14:55:05;6.70;;;4.20;;
19973;SDS011;10148;47.694;9.442;2023-02-08T14:57:36;10.63;;;4.53;;
19973;SDS011;10148;47.694;9.442;2023-02-08T15:00:06;7.77;;;4.57;;
19973;SDS011;10148;47.694;9.442;2023-02-08T15:02:42;10.13;;;4.70;;
19973;SDS011;10148;47.694;9.442;2023-02-08T15:05:18;7.13;;;4.07;;
19973;SDS011;10148;47.694;9.442;2023-02-08T15:07:52;9.57;;;4.13;;
19973;SDS011;10148;47.694;9.442;2023-02-08T15:10:20;6.67;;;4.50;;
19973;SDS011;10148;47.694;9.442;2023-02-08T15:12:55;6.20;;;3.77;;
19973;SDS011;10148;47.694;9.442;2023-02-08T15:15:28;6.40;;;4.07;;
19973;SDS011;10148;47.694;9.442;2023-02-08T15:17:58;5.33;;;3.70;;
19973;SDS011;10148;47.694;9.442;2023-02-08T15:20:26;9.57;;;4.47;;
19973;SDS011;10148;47.694;9.442;2023-02-08T15:23:03;6.97;;;4.20;;
19973;SDS011;10148;47.694;9.442;2023-02-08T15:25:55;8.77;;;5.00;;
19973;SDS011;10148;47.694;9.442;2023-02-08T15:28:27;8.63;;;4.80;;
19973;SDS011;10148;47.694;9.442;2023-02-08T15:33:24;13.73;;;6.00;;
19973;SDS011;10148;47.694;9.442;2023-02-08T15:36:33;10.50;;;6.13;;
19973;SDS011;10148;47.694;9.442;2023-02-08T15:38:49;8.40;;;5.13;;
19973;SDS011;10148;47.694;9.442;2023-02-08T15:41:29;10.10;;;5.30;;
19973;SDS011;10148;47.694;9.442;2023-02-08T15:46:49;8.47;;;5.67;;
19973;SDS011;10148;47.694;9.442;2023-02-08T15:49:17;10.80;;;6.50;;
19973;SDS011;10148;47.694;9.442;2023-02-08T15:51:53;11.90;;;6.37;;
19973;SDS011;10148;47.694;9.442;2023-02-08T15:54:21;13.63;;;7.10;;
19973;SDS011;10148;47.694;9.442;2023-02-08T15:56:51;11.57;;;6.37;;
19973;SDS011;10148;47.694;9.442;2023-02-08T15:59:22;12.17;;;7.27;;
19973;SDS011;10148;47.694;9.442;2023-02-08T16:01:50;11.27;;;7.27;;
19973;SDS011;10148;47.694;9.442;2023-02-08T16:04:16;12.37;;;7.23;;
19973;SDS011;10148;47.694;9.442;2023-02-08T16:06:55;13.87;;;6.93;;
19973;SDS011;10148;47.694;9.442;2023-02-08T16:09:23;17.53;;;7.77;;
19973;SDS011;10148;47.694;9.442;2023-02-08T16:11:52;12.77;;;6.93;;
19973;SDS011;10148;47.694;9.442;2023-02-08T16:14:22;12.37;;;7.37;;
19973;SDS011;10148;47.694;9.442;2023-02-08T16:16:50;13.00;;;6.90;;
19973;SDS011;10148;47.694;9.442;2023-02-08T16:19:31;13.70;;;7.27;;
19973;SDS011;10148;47.694;9.442;2023-02-08T16:24:44;12.47;;;6.50;;
19973;SDS011;10148;47.694;9.442;2023-02-08T16:27:27;13.00;;;7.10;;
19973;SDS011;10148;47.694;9.442;2023-02-08T16:29:54;14.30;;;7.33;;
19973;SDS011;10148;47.694;9.442;2023-02-08T16:32:24;12.33;;;6.80;;
19973;SDS011;10148;47.694;9.442;2023-02-08T16:34:52;13.93;;;7.03;;
19973;SDS011;10148;47.694;9.442;2023-02-08T16:37:25;14.57;;;7.27;;
19973;SDS011;10148;47.694;9.442;2023-02-08T16:40:00;12.40;;;7.40;;
19973;SDS011;10148;47.694;9.442;2023-02-08T16:42:45;14.63;;;8.13;;
19973;SDS011;10148;47.694;9.442;2023-02-08T16:45:11;15.53;;;8.13;;
19973;SDS011;10148;47.694;9.442;2023-02-08T16:47:50;15.03;;;8.30;;
19973;SDS011;10148;47.694;9.442;2023-02-08T16:50:22;14.27;;;7.13;;
19973;SDS011;10148;47.694;9.442;2023-02-08T16:52:54;12.93;;;6.57;;
19973;SDS011;10148;47.694;9.442;2023-02-08T16:55:24;15.23;;;7.37;;
19973;SDS011;10148;47.694;9.442;2023-02-08T16:57:52;18.13;;;7.17;;